Time;durP1;ratioP1;P1;durP2;ratioP2;P2;SDS_P1;SDS_P2;PMS_P1;PMS_P2;Temp;Humidity;BMP_temperature;BMP_pressure;BME280_temperature;BME280_humidity;BME280_pressure;Samples;Min_cycle;Max_cycle;Signal;HPM_P1;HPM_P2
2022/05/06 00:01:29;;;;;;;0.70;0.70;;;;;;;14.04;100.00;95975.78;5115222;28;20455;-51
2022/05/06 00:03:57;;;;;;;0.50;0.50;;;;;;;13.99;100.00;95948.06;5115532;28;20467;-51
2022/05/06 00:06:28;;;;;;;0.40;0.30;;;;;;;14.15;100.00;95970.13;5115991;28;20514;-51
2022/05/06 00:08:57;;;;;;;0.40;0.30;;;;;;;14.07;100.00;95983.22;5115932;28;20428;-51
2022/05/06 00:11:26;;;;;;;0.40;0.40;;;;;;;14.16;100.00;95963.72;5115647;28;20455;-51
2022/05/06 00:13:54;;;;;;;0.40;0.40;;;;;;;14.07;100.00;95954.69;5115304;28;21008;-52
2022/05/06 00:16:27;;;;;;;0.40;0.30;;;;;;;14.12;100.00;95986.66;5115431;28;20522;-52
2022/05/06 00:18:57;;;;;;;0.40;0.30;;;;;;;13.47;100.00;95981.59;5115390;28;20435;-52
2022/05/06 00:21:25;;;;;;;0.67;0.40;;;;;;;13.73;100.00;95988.44;5115271;28;20960;-51
2022/05/06 00:23:53;;;;;;;0.40;0.30;;;;;;;13.90;100.00;95987.03;5115301;28;20459;-51
2022/05/06 00:26:22;;;;;;;0.40;0.30;;;;;;;14.01;100.00;95987.78;5115501;28;20852;-51
2022/05/06 00:28:50;;;;;;;0.40;0.20;;;;;;;14.11;100.00;95978.94;5115257;28;20455;-51
2022/05/06 00:31:19;;;;;;;0.40;0.30;;;;;;;14.07;100.00;95986.69;5115083;28;20518;-51
2022/05/06 00:33:48;;;;;;;0.50;0.50;;;;;;;13.91;100.00;95956.63;5114915;28;20475;-51
2022/05/06 00:36:17;;;;;;;0.40;0.30;;;;;;;14.11;100.00;95976.28;5115365;28;20416;-51
2022/05/06 00:38:46;;;;;;;0.40;0.20;;;;;;;13.99;100.00;95981.91;5115324;28;20462;-52
2022/05/06 00:41:14;;;;;;;0.40;0.20;;;;;;;13.93;100.00;95978.50;5114814;28;20431;-52
2022/05/06 00:43:43;;;;;;;0.40;0.30;;;;;;;13.85;100.00;95979.06;5114582;28;20927;-52
2022/05/06 00:46:14;;;;;;;0.30;0.20;;;;;;;13.75;100.00;95984.44;5114548;28;20470;-51
2022/05/06 00:48:46;;;;;;;0.40;0.40;;;;;;;13.66;100.00;95982.63;5115093;28;20458;-51
2022/05/06 00:51:18;;;;;;;0.40;0.30;;;;;;;13.60;100.00;95976.50;5115001;28;20805;-52
2022/05/06 00:53:47;;;;;;;0.40;0.40;;;;;;;13.60;100.00;95981.03;5114705;28;20550;-51
2022/05/06 00:56:17;;;;;;;7.93;0.67;;;;;;;13.54;100.00;95985.56;5114973;28;20444;-52
2022/05/06 00:58:46;;;;;;;0.40;0.23;;;;;;;13.56;100.00;95988.75;5114578;28;20937;-51
2022/05/06 01:01:14;;;;;;;0.60;0.40;;;;;;;13.58;100.00;95983.97;5114578;28;20872;-52
2022/05/06 01:03:43;;;;;;;0.30;0.20;;;;;;;13.63;100.00;95975.16;5113572;28;20435;-52
2022/05/06 01:06:13;;;;;;;0.40;0.30;;;;;;;13.62;100.00;95978.88;5114453;28;20471;-52
2022/05/06 01:08:44;;;;;;;0.40;0.30;;;;;;;13.63;100.00;95989.28;5114432;28;20427;-51
2022/05/06 01:11:14;;;;;;;0.77;0.30;;;;;;;13.65;100.00;95973.81;5114295;28;20419;-51
2022/05/06 01:13:45;;;;;;;0.63;0.63;;;;;;;13.46;100.00;95959.50;5114349;28;20510;-52
2022/05/06 01:16:13;;;;;;;0.40;0.40;;;;;;;13.12;100.00;95897.31;5114235;28;20455;-51
2022/05/06 01:18:42;;;;;;;0.40;0.20;;;;;;;13.50;100.00;95965.06;5114275;28;20480;-51
2022/05/06 01:21:16;;;;;;;0.40;0.30;;;;;;;13.52;100.00;95976.25;5114408;28;20484;-51
2022/05/06 01:23:46;;;;;;;0.50;0.40;;;;;;;13.31;100.00;95932.91;5114175;28;20924;-51
2022/05/06 01:26:14;;;;;;;0.60;0.57;;;;;;;13.53;100.00;95978.66;5114157;28;20928;-51
2022/05/06 01:28:43;;;;;;;0.40;0.20;;;;;;;13.41;100.00;95972.03;5114052;28;20467;-51
2022/05/06 01:31:13;;;;;;;0.37;0.23;;;;;;;13.32;100.00;95971.78;5113833;28;20459;-51
2022/05/06 01:33:44;;;;;;;0.40;0.30;;;;;;;13.40;100.00;95973.09;5113837;28;20936;-51
2022/05/06 01:36:13;;;;;;;0.40;0.30;;;;;;;13.39;100.00;95966.97;5114232;28;20422;-51
2022/05/06 01:38:43;;;;;;;0.30;0.20;;;;;;;13.40;100.00;95970.44;5113513;28;20519;-51
2022/05/06 01:41:17;;;;;;;0.40;0.30;;;;;;;13.50;100.00;95971.22;5113945;28;20443;-51
2022/05/06 01:43:50;;;;;;;0.30;0.20;;;;;;;13.25;100.00;95972.06;5113639;28;20491;-52
2022/05/06 01:46:21;;;;;;;0.40;0.20;;;;;;;12.99;100.00;95973.16;5113953;28;20460;-51
2022/05/06 01:48:50;;;;;;;0.50;0.30;;;;;;;13.21;100.00;95968.34;5113721;28;20468;-52
2022/05/06 01:51:20;;;;;;;0.40;0.30;;;;;;;12.85;100.00;95902.13;5113579;28;20435;-52
2022/05/06 01:53:50;;;;;;;1.23;1.23;;;;;;;13.23;100.00;95973.41;5113560;28;20447;-52
2022/05/06 01:56:21;;;;;;;0.77;0.40;;;;;;;12.53;100.00;95868.66;5113506;28;20920;-52
2022/05/06 01:58:49;;;;;;;0.40;0.30;;;;;;;13.02;100.00;95985.13;5112864;28;20510;-52
2022/05/06 02:01:18;;;;;;;0.40;0.30;;;;;;;13.04;100.00;95977.66;5113682;28;20846;-52
2022/05/06 02:06:32;;;;;;;0.30;0.20;;;;;;;12.95;100.00;95984.59;5113133;28;20977;-51
2022/05/06 02:09:01;;;;;;;1.03;0.60;;;;;;;12.89;100.00;95975.81;5113493;28;20514;-51
2022/05/06 02:11:31;;;;;;;0.40;0.30;;;;;;;13.01;100.00;95979.00;5113531;28;20874;-51
2022/05/06 02:13:59;;;;;;;0.30;0.20;;;;;;;13.07;100.00;95975.31;5113119;28;20428;-51
2022/05/06 02:16:29;;;;;;;0.30;0.20;;;;;;;13.20;100.00;95971.28;5113014;28;20463;-52
2022/05/06 02:18:57;;;;;;;0.30;0.20;;;;;;;13.15;100.00;95971.28;5112983;28;20485;-52
2022/05/06 02:21:26;;;;;;;0.33;0.30;;;;;;;12.30;100.00;95978.16;5113227;28;20428;-51
2022/05/06 02:23:54;;;;;;;0.37;0.30;;;;;;;12.55;100.00;95975.53;5113273;28;20903;-51
2022/05/06 02:26:22;;;;;;;0.40;0.30;;;;;;;12.83;100.00;95974.22;5112811;28;20969;-51
2022/05/06 02:28:52;;;;;;;0.50;0.30;;;;;;;12.66;100.00;95977.16;5112222;28;20434;-51
2022/05/06 02:34:06;;;;;;;0.40;0.30;;;;;;;12.83;100.00;95978.72;5112148;28;20794;-52
2022/05/06 02:36:34;;;;;;;0.30;0.20;;;;;;;12.92;100.00;95969.97;5112974;28;20525;-50
2022/05/06 02:39:03;;;;;;;0.40;0.30;;;;;;;12.93;100.00;95976.88;5112965;28;20454;-51
2022/05/06 02:41:31;;;;;;;0.40;0.30;;;;;;;12.95;100.00;95976.63;5112993;28;20415;-51
2022/05/06 02:44:02;;;;;;;0.40;0.40;;;;;;;13.02;100.00;95979.78;5112353;28;20566;-51
2022/05/06 02:46:30;;;;;;;0.30;0.30;;;;;;;13.17;100.00;95985.94;5112751;28;21036;-51
2022/05/06 02:48:59;;;;;;;0.30;0.30;;;;;;;13.14;100.00;95983.81;5111769;28;20886;-51
2022/05/06 02:51:29;;;;;;;0.60;0.40;;;;;;;13.11;100.00;95972.88;5112820;28;20499;-50
2022/05/06 02:53:59;;;;;;;1.40;1.40;;;;;;;13.11;100.00;95984.34;5112426;28;20860;-50
2022/05/06 02:56:27;;;;;;;0.40;0.40;;;;;;;13.18;100.00;95989.41;5112033;28;20938;-51
2022/05/06 02:58:55;;;;;;;0.90;0.63;;;;;;;13.02;100.00;95966.50;5112605;28;20436;-51
2022/05/06 03:01:25;;;;;;;0.40;0.40;;;;;;;13.01;100.00;95988.81;5112399;28;20471;-52
2022/05/06 03:03:54;;;;;;;0.30;0.30;;;;;;;13.02;100.00;95985.13;5111948;28;20420;-51
2022/05/06 03:06:22;;;;;;;0.40;0.20;;;;;;;12.97;100.00;95987.78;5112338;28;20439;-51
2022/05/06 03:08:51;;;;;;;0.30;0.20;;;;;;;13.01;100.00;95992.28;5112017;28;20459;-52
2022/05/06 03:11:19;;;;;;;0.40;0.30;;;;;;;13.09;100.00;95993.66;5111596;28;20427;-51
2022/05/06 03:13:47;;;;;;;1.07;0.77;;;;;;;12.99;100.00;95985.66;5112219;28;20470;-51
2022/05/06 03:16:16;;;;;;;0.50;0.50;;;;;;;13.05;100.00;96005.88;5112082;28;20521;-52
2022/05/06 03:18:46;;;;;;;0.30;0.30;;;;;;;13.04;100.00;95998.94;5112256;28;20419;-51
2022/05/06 03:21:14;;;;;;;0.77;0.77;;;;;;;13.05;100.00;95997.91;5112153;28;20485;-51
2022/05/06 03:23:43;;;;;;;0.40;0.30;;;;;;;13.04;100.00;95998.94;5112414;28;20462;-51
2022/05/06 03:26:12;;;;;;;0.30;0.20;;;;;;;13.13;100.00;96006.16;5112373;28;20868;-51
2022/05/06 03:28:40;;;;;;;0.70;0.70;;;;;;;13.03;100.00;96010.69;5111923;28;20426;-51
2022/05/06 03:31:09;;;;;;;0.40;0.40;;;;;;;13.12;100.00;96011.75;5112055;28;20478;-51
2022/05/06 03:33:38;;;;;;;0.57;0.40;;;;;;;12.99;100.00;96014.91;5112025;28;20439;-51
2022/05/06 03:36:10;;;;;;;0.30;0.20;;;;;;;12.83;100.00;96018.63;5111776;28;20482;-53
2022/05/06 03:38:38;;;;;;;0.40;0.30;;;;;;;12.74;100.00;96013.88;5112234;28;20522;-51
2022/05/06 03:41:06;;;;;;;0.40;0.30;;;;;;;12.71;100.00;96011.72;5112204;28;20507;-52
2022/05/06 03:43:35;;;;;;;0.30;0.23;;;;;;;12.90;100.00;96017.34;5111697;28;20507;-52
2022/05/06 03:46:03;;;;;;;0.30;0.30;;;;;;;12.81;100.00;96021.56;5111801;28;21094;-51
2022/05/06 03:48:32;;;;;;;0.40;0.30;;;;;;;12.29;100.00;96031.59;5112150;28;20416;-52
2022/05/06 03:53:47;;;;;;;0.40;0.30;;;;;;;12.86;100.00;96028.75;5111791;28;20492;-51
2022/05/06 03:56:16;;;;;;;0.47;0.40;;;;;;;12.88;100.00;96029.28;5111778;28;21028;-51
2022/05/06 03:58:44;;;;;;;0.30;0.30;;;;;;;12.34;100.00;96031.63;5112077;28;20422;-51
2022/05/06 04:01:13;;;;;;;0.30;0.20;;;;;;;12.02;100.00;96040.53;5111715;28;20957;-50
2022/05/06 04:03:42;;;;;;;0.30;0.30;;;;;;;11.90;100.00;96023.22;5111799;28;20435;-51
2022/05/06 04:06:11;;;;;;;0.40;0.30;;;;;;;12.45;100.00;96042.00;5111572;28;20427;-56
2022/05/06 04:08:41;;;;;;;0.53;0.53;;;;;;;12.97;100.00;96047.13;5111047;28;20814;-51
2022/05/06 04:11:13;;;;;;;0.40;0.27;;;;;;;12.40;100.00;96049.97;5111521;28;20945;-51
2022/05/06 04:13:41;;;;;;;0.40;0.20;;;;;;;12.18;100.00;96054.69;5111331;28;20975;-52
2022/05/06 04:16:09;;;;;;;0.40;0.30;;;;;;;12.01;100.00;96049.59;5111820;28;20502;-57
2022/05/06 04:18:38;;;;;;;1.53;1.53;;;;;;;12.49;100.00;96048.41;5111815;28;20488;-51
2022/05/06 04:23:52;;;;;;;0.40;0.40;;;;;;;11.43;100.00;96060.41;5115270;28;20462;-51
2022/05/06 04:26:21;;;;;;;0.40;0.30;;;;;;;11.60;100.00;96068.19;5115387;28;20974;-51
2022/05/06 04:28:50;;;;;;;0.40;0.30;;;;;;;11.36;100.00;96031.41;5114884;28;20510;-51
2022/05/06 04:31:18;;;;;;;0.40;0.30;;;;;;;12.04;100.00;96061.56;5114649;28;20420;-51
2022/05/06 04:33:47;;;;;;;0.30;0.30;;;;;;;12.04;100.00;96043.75;5114985;28;21083;-51
2022/05/06 04:36:15;;;;;;;0.40;0.30;;;;;;;12.25;100.00;96062.41;5115256;28;20495;-51
2022/05/06 04:38:43;;;;;;;1.03;1.03;;;;;;;12.37;100.00;96063.00;5114129;28;21000;-51
2022/05/06 04:41:13;;;;;;;0.40;0.30;;;;;;;12.50;100.00;96063.28;5114521;28;20474;-51
2022/05/06 04:43:42;;;;;;;0.40;0.37;;;;;;;12.11;100.00;96070.09;5114442;28;21078;-51
2022/05/06 04:46:11;;;;;;;1.37;0.87;;;;;;;11.99;100.00;96072.16;5115029;28;20467;-51
2022/05/06 04:48:39;;;;;;;0.40;0.40;;;;;;;11.97;100.00;96074.25;5115058;28;20438;-52
2022/05/06 04:51:08;;;;;;;0.40;0.30;;;;;;;12.10;100.00;96071.94;5114790;28;20527;-52
2022/05/06 04:53:36;;;;;;;4.00;2.13;;;;;;;12.04;100.00;96072.19;5114752;28;20467;-52
2022/05/06 04:56:05;;;;;;;0.40;0.30;;;;;;;12.41;100.00;96077.34;5114616;28;20558;-51
2022/05/06 04:58:33;;;;;;;0.40;0.30;;;;;;;12.75;100.00;96071.31;5114681;28;20432;-51
2022/05/06 05:01:04;;;;;;;0.47;0.47;;;;;;;12.93;100.00;96071.88;5113848;28;20463;-52
2022/05/06 05:03:32;;;;;;;0.40;0.30;;;;;;;12.95;100.00;96075.06;5114776;28;20428;-52
2022/05/06 05:06:01;;;;;;;1.03;1.03;;;;;;;12.63;100.00;96078.75;5114287;28;20510;-52
2022/05/06 05:08:29;;;;;;;0.70;0.70;;;;;;;12.44;100.00;96080.31;5114331;28;20412;-52
2022/05/06 05:11:02;;;;;;;0.40;0.33;;;;;;;12.54;100.00;96084.84;5114296;28;20423;-51
2022/05/06 05:13:34;;;;;;;2.40;1.23;;;;;;;12.95;100.00;96080.38;5114632;28;20427;-51
2022/05/06 05:16:04;;;;;;;0.40;0.30;;;;;;;12.82;100.00;96070.25;5114292;28;20480;-51
2022/05/06 05:18:32;;;;;;;0.40;0.30;;;;;;;12.96;100.00;96081.97;5114265;28;20467;-54
2022/05/06 05:21:01;;;;;;;0.63;0.63;;;;;;;12.96;100.00;96073.97;5114218;28;20463;-52
2022/05/06 05:23:31;;;;;;;0.40;0.30;;;;;;;13.18;100.00;96085.22;5114138;28;20530;-52
2022/05/06 05:25:59;;;;;;;0.40;0.40;;;;;;;12.89;100.00;96084.09;5113952;28;20466;-52
2022/05/06 05:28:28;;;;;;;0.30;0.20;;;;;;;12.94;100.00;96081.44;5113940;28;20439;-52
2022/05/06 05:30:56;;;;;;;0.40;0.30;;;;;;;13.10;100.00;96088.41;5113960;28;20427;-52
2022/05/06 05:33:26;;;;;;;0.40;0.30;;;;;;;13.28;100.00;96088.66;5112861;28;20431;-52
2022/05/06 05:35:54;;;;;;;0.60;0.60;;;;;;;13.73;100.00;96085.16;5113701;28;20515;-52
2022/05/06 05:38:23;;;;;;;0.87;0.87;;;;;;;14.07;100.00;96087.16;5113696;28;20428;-52
2022/05/06 05:40:51;;;;;;;1.60;0.43;;;;;;;13.58;100.00;96093.19;5113411;28;20424;-52
2022/05/06 05:49:03;;;;;;;0.40;0.40;;;;;;;14.26;100.00;96080.19;5113953;28;20538;-52
2022/05/06 05:51:32;;;;;;;0.53;0.53;;;;;;;14.94;100.00;96083.84;5113555;28;21009;-51
2022/05/06 05:54:00;;;;;;;0.80;0.80;;;;;;;14.75;100.00;96089.00;5113382;28;20458;-51
2022/05/06 05:56:29;;;;;;;0.63;0.60;;;;;;;14.57;100.00;96071.78;5112883;28;20506;-51
2022/05/06 05:58:57;;;;;;;1.40;1.33;;;;;;;14.54;100.00;96076.88;5113675;28;20510;-51
2022/05/06 06:01:26;;;;;;;0.50;0.43;;;;;;;15.09;100.00;96070.38;5113353;28;20519;-51
2022/05/06 06:03:54;;;;;;;0.83;0.60;;;;;;;14.88;100.00;96071.59;5113582;28;20438;-51
2022/05/06 06:06:24;;;;;;;0.40;0.30;;;;;;;15.55;100.00;96074.28;5113641;28;20498;-52
2022/05/06 06:08:52;;;;;;;0.40;0.40;;;;;;;15.91;100.00;96071.25;5113178;28;20427;-52
2022/05/06 06:11:21;;;;;;;0.90;0.90;;;;;;;15.70;100.00;96068.78;5113295;28;20420;-52
2022/05/06 06:13:57;;;;;;;0.40;0.40;;;;;;;16.16;100.00;96070.97;5112843;28;20492;-51
2022/05/06 06:16:26;;;;;;;0.67;0.67;;;;;;;15.88;100.00;96062.72;5112924;28;22374;-52
2022/05/06 06:18:58;;;;;;;1.00;1.00;;;;;;;15.88;100.00;96078.75;5112987;28;20427;-52
2022/05/06 06:21:28;;;;;;;0.70;0.70;;;;;;;15.75;100.00;96075.97;5113320;28;20465;-54
2022/05/06 06:23:58;;;;;;;0.70;0.60;;;;;;;16.51;100.00;96075.88;5113149;28;20462;-52
2022/05/06 06:26:27;;;;;;;0.90;0.90;;;;;;;15.80;100.00;96074.03;5112992;28;20430;-52
2022/05/06 06:28:55;;;;;;;0.50;0.40;;;;;;;16.01;100.00;96071.94;5112779;28;20427;-51
2022/05/06 06:31:24;;;;;;;0.57;0.50;;;;;;;16.13;100.00;96045.59;5112889;28;20943;-52
2022/05/06 06:33:53;;;;;;;1.23;1.07;;;;;;;15.78;100.00;96067.38;5112975;28;20423;-51
2022/05/06 06:36:22;;;;;;;0.50;0.50;;;;;;;16.00;100.00;96051.63;5112523;28;20472;-52
2022/05/06 06:38:52;;;;;;;1.03;1.03;;;;;;;16.30;100.00;96045.09;5113040;28;20444;-51
2022/05/06 06:41:20;;;;;;;0.50;0.40;;;;;;;16.40;100.00;96058.34;5112484;28;20455;-52
2022/05/06 06:43:49;;;;;;;0.90;0.40;;;;;;;17.15;100.00;96049.22;5112442;28;20548;-52
2022/05/06 06:46:18;;;;;;;0.83;0.83;;;;;;;16.34;100.00;96006.78;5112419;28;20978;-52
2022/05/06 06:48:47;;;;;;;0.97;0.97;;;;;;;17.33;100.00;96054.88;5111821;28;20475;-51
2022/05/06 06:51:15;;;;;;;0.97;0.87;;;;;;;16.55;100.00;96054.69;5112213;28;20523;-53
2022/05/06 06:53:43;;;;;;;0.40;0.30;;;;;;;17.46;100.00;96046.84;5112945;28;20462;-52
2022/05/06 06:56:13;;;;;;;0.80;0.80;;;;;;;17.69;96.73;96037.09;5112506;28;20428;-53
2022/05/06 06:58:42;;;;;;;1.43;0.50;;;;;;;17.48;97.50;96041.97;5112274;28;20510;-52
2022/05/06 07:01:11;;;;;;;0.60;0.60;;;;;;;18.62;91.97;96038.47;5112167;28;20450;-52
2022/05/06 07:03:39;;;;;;;0.97;0.97;;;;;;;19.19;84.78;96042.25;5112647;28;20415;-52
2022/05/06 07:11:56;;;;;;;0.40;0.30;;;;;;;19.10;81.31;96031.44;5080662;28;20530;-53
2022/05/06 07:14:26;;;;;;;0.50;0.50;;;;;;;18.32;83.51;96026.44;5112105;28;20423;-53
2022/05/06 07:16:55;;;;;;;0.90;0.80;;;;;;;18.85;80.57;96014.03;5112188;28;20428;-53
2022/05/06 07:19:24;;;;;;;0.70;0.40;;;;;;;18.70;85.13;96033.16;5111798;28;20493;-54
2022/05/06 07:21:53;;;;;;;0.57;0.47;;;;;;;19.43;81.00;96032.00;5111817;28;20451;-53
2022/05/06 07:24:21;;;;;;;0.73;0.73;;;;;;;19.01;79.96;96030.59;5111642;28;20515;-54
2022/05/06 07:26:51;;;;;;;0.60;0.60;;;;;;;19.61;80.02;96020.22;5111802;28;20515;-54
2022/05/06 07:29:20;;;;;;;1.10;0.80;;;;;;;19.33;72.84;96026.84;5112046;28;20847;-54
2022/05/06 07:31:48;;;;;;;0.97;0.87;;;;;;;19.47;74.02;96011.47;5111480;28;20474;-54
2022/05/06 07:34:17;;;;;;;0.50;0.40;;;;;;;18.72;78.97;96028.28;5111671;28;20996;-54
2022/05/06 07:36:45;;;;;;;0.87;0.87;;;;;;;18.47;83.85;96015.41;5111979;28;20532;-55
2022/05/06 07:39:14;;;;;;;3.73;2.60;;;;;;;18.24;86.73;96033.31;5111944;28;21018;-56
2022/05/06 07:41:44;;;;;;;0.60;0.60;;;;;;;19.23;84.64;96027.88;5111725;28;20488;-55
2022/05/06 07:44:14;;;;;;;0.53;0.40;;;;;;;19.22;80.38;96026.31;5111174;28;21064;-55
2022/05/06 07:46:42;;;;;;;0.50;0.43;;;;;;;18.89;80.24;96015.03;5111556;28;20432;-56
2022/05/06 07:49:11;;;;;;;0.63;0.43;;;;;;;20.36;76.19;96021.97;5111874;28;20439;-58
2022/05/06 07:51:40;;;;;;;0.80;0.50;;;;;;;20.90;69.60;96014.09;5112028;28;20773;-57
2022/05/06 07:54:08;;;;;;;0.53;0.53;;;;;;;21.64;66.36;96015.75;5111746;28;20947;-56
2022/05/06 07:56:37;;;;;;;0.67;0.53;;;;;;;21.26;60.06;96016.47;5112606;28;20463;-57
2022/05/06 07:59:05;;;;;;;0.50;0.50;;;;;;;21.10;58.50;96012.69;5115633;28;20507;-56
2022/05/06 08:04:37;;;;;;;0.50;0.40;;;;;;;22.50;60.35;96000.75;5115623;28;20490;-56
2022/05/06 08:07:07;;;;;;;0.70;0.40;;;;;;;21.12;57.41;96005.09;5115617;28;20423;-55
2022/05/06 08:09:36;;;;;;;0.40;0.30;;;;;;;20.66;59.02;95962.59;5115551;28;20431;-56
2022/05/06 08:12:05;;;;;;;1.03;0.63;;;;;;;20.85;61.98;95994.59;5115581;28;20865;-56
2022/05/06 08:14:33;;;;;;;0.40;0.30;;;;;;;20.99;66.58;95995.22;5115509;28;20514;-56
2022/05/06 08:17:03;;;;;;;0.50;0.50;;;;;;;20.14;66.27;95952.84;5115469;28;20498;-56
2022/05/06 08:19:33;;;;;;;0.60;0.50;;;;;;;20.63;69.49;95994.75;5115190;28;20566;-57
2022/05/06 08:22:01;;;;;;;0.80;0.50;;;;;;;21.18;67.51;95995.72;5115138;28;20415;-57
2022/05/06 08:24:30;;;;;;;0.73;0.40;;;;;;;21.15;65.99;95988.25;5115091;28;20537;-57
2022/05/06 08:26:58;;;;;;;0.40;0.40;;;;;;;21.09;63.85;95994.94;5115334;28;20411;-57
2022/05/06 08:29:28;;;;;;;0.50;0.40;;;;;;;21.26;64.24;95994.91;5114894;28;20515;-57
2022/05/06 08:31:56;;;;;;;0.60;0.60;;;;;;;21.86;66.87;95986.66;5114985;28;20454;-58
2022/05/06 08:34:26;;;;;;;0.40;0.40;;;;;;;21.86;58.63;95985.84;5114647;28;20990;-59
2022/05/06 08:36:54;;;;;;;0.53;0.50;;;;;;;21.88;56.94;95991.75;5114288;28;20510;-56
2022/05/06 08:39:23;;;;;;;0.40;0.30;;;;;;;22.94;56.27;95982.34;5114383;28;20557;-56
2022/05/06 08:41:54;;;;;;;0.67;0.67;;;;;;;22.51;53.85;95975.34;5114484;28;20905;-56
2022/05/06 08:52:49;;;;;;;0.60;0.60;;;;;;;21.96;49.45;95980.88;5114463;28;20975;-56
2022/05/06 08:55:18;;;;;;;0.53;0.50;;;;;;;22.77;49.01;95978.66;5114711;28;20507;-56
2022/05/06 08:57:47;;;;;;;0.40;0.30;;;;;;;22.94;52.27;95979.63;5114392;28;20874;-56
2022/05/06 09:00:17;;;;;;;0.57;0.57;;;;;;;22.86;48.95;95981.28;5114681;28;20876;-56
2022/05/06 09:02:46;;;;;;;0.60;0.40;;;;;;;23.31;48.19;95971.31;5114301;28;20514;-56
2022/05/06 09:05:19;;;;;;;0.63;0.63;;;;;;;23.64;45.92;95970.53;5114395;28;20472;-56
2022/05/06 09:07:59;;;;;;;0.60;0.50;;;;;;;24.21;45.06;95970.47;5114362;28;20436;-56
2022/05/06 09:10:28;;;;;;;0.40;0.40;;;;;;;24.74;44.90;95970.16;5114128;28;20964;-56
2022/05/06 09:12:59;;;;;;;0.53;0.30;;;;;;;25.08;43.21;95904.50;5113363;28;20557;-55
2022/05/06 09:18:20;;;;;;;0.83;0.83;;;;;;;24.06;44.76;95965.72;5114038;28;20474;-56
2022/05/06 09:21:10;;;;;;;0.43;0.40;;;;;;;24.02;46.18;95957.47;5114445;28;20415;-55
2022/05/06 09:23:38;;;;;;;0.40;0.30;;;;;;;25.10;45.91;95944.81;5114002;28;21027;-55
2022/05/06 09:26:17;;;;;;;0.50;0.40;;;;;;;25.27;45.23;95943.75;5113904;28;20442;-55
2022/05/06 09:28:45;;;;;;;0.50;0.40;;;;;;;25.26;42.22;95945.66;5114188;28;20518;-55
2022/05/06 09:31:14;;;;;;;0.50;0.30;;;;;;;25.27;41.87;95939.88;5113800;28;20428;-55
2022/05/06 09:33:46;;;;;;;0.40;0.30;;;;;;;25.57;42.24;95931.38;5113830;28;20950;-55
2022/05/06 09:36:26;;;;;;;0.50;0.40;;;;;;;27.42;37.28;95930.47;5113606;28;20435;-55
2022/05/06 09:39:05;;;;;;;1.37;0.30;;;;;;;26.90;37.41;95930.97;5113966;28;20454;-55
2022/05/06 09:41:34;;;;;;;0.50;0.30;;;;;;;25.66;42.39;95926.56;5113670;28;20431;-55
2022/05/06 09:44:04;;;;;;;0.40;0.30;;;;;;;25.32;42.56;95930.72;5113623;28;20491;-56
2022/05/06 09:46:33;;;;;;;5.03;2.40;;;;;;;25.88;42.91;95885.22;5113345;28;20443;-55
2022/05/06 09:49:04;;;;;;;0.40;0.30;;;;;;;25.33;43.87;95926.84;5113492;28;21015;-55
2022/05/06 09:51:53;;;;;;;0.63;0.60;;;;;;;25.76;39.15;95915.16;5113341;28;20427;-55
2022/05/06 09:54:32;;;;;;;0.90;0.73;;;;;;;26.33;39.85;95906.44;5113562;28;20492;-55
2022/05/06 09:57:04;;;;;;;0.83;0.50;;;;;;;27.31;36.69;95907.66;5113348;28;20434;-55
2022/05/06 09:59:32;;;;;;;0.40;0.30;;;;;;;28.44;34.03;95900.56;5113252;28;20459;-55
2022/05/06 10:02:01;;;;;;;0.43;0.37;;;;;;;25.93;34.60;95903.97;5113517;28;20877;-55
2022/05/06 10:04:35;;;;;;;0.30;0.30;;;;;;;26.75;34.56;95890.22;5113509;28;20415;-55
2022/05/06 10:07:07;;;;;;;0.70;0.63;;;;;;;27.64;34.70;95869.75;5113058;28;20424;-55
2022/05/06 10:09:41;;;;;;;1.17;0.90;;;;;;;27.49;36.15;95873.41;5113154;28;20420;-55
2022/05/06 10:12:14;;;;;;;0.90;0.57;;;;;;;27.33;36.47;95863.72;5113058;28;20533;-55
2022/05/06 10:14:45;;;;;;;0.40;0.30;;;;;;;26.62;37.44;95869.75;5113216;28;20420;-56
2022/05/06 10:17:13;;;;;;;0.40;0.40;;;;;;;28.22;35.84;95869.47;5112842;28;20431;-55
2022/05/06 10:19:49;;;;;;;2.20;0.60;;;;;;;27.50;37.97;95866.03;5112248;28;20505;-55
2022/05/06 10:22:18;;;;;;;0.57;0.47;;;;;;;28.55;35.22;95858.63;5112922;28;20431;-56
2022/05/06 10:24:49;;;;;;;0.60;0.40;;;;;;;28.57;34.18;95853.56;5113326;28;20511;-55
2022/05/06 10:32:25;;;;;;;0.40;0.30;;;;;;;29.39;32.78;95844.38;5113501;28;20488;-56
2022/05/06 10:33:18;;;;;;;0.40;0.30;;;;;;;29.13;33.73;95836.28;5113181;28;20446;-56
2022/05/06 10:35:48;;;;;;;1.57;0.57;;;;;;;27.31;35.00;95842.31;5112735;28;20460;-55
2022/05/06 10:38:23;;;;;;;1.10;0.50;;;;;;;27.04;35.70;95837.97;5112522;28;20522;-55
2022/05/06 10:41:02;;;;;;;0.50;0.50;;;;;;;26.03;36.75;95835.50;5112724;28;20427;-55
2022/05/06 10:43:54;;;;;;;0.40;0.40;;;;;;;25.85;38.56;95837.81;5112482;28;20510;-54
2022/05/06 10:46:34;;;;;;;0.50;0.50;;;;;;;25.98;39.80;95824.91;5112834;28;20504;-54
2022/05/06 10:49:42;;;;;;;0.43;0.40;;;;;;;27.43;36.73;95831.28;5112391;28;20458;-54
2022/05/06 10:52:54;;;;;;;0.57;0.50;;;;;;;27.06;37.29;95819.34;5091145;28;20481;-54
2022/05/06 10:55:25;;;;;;;0.80;0.80;;;;;;;27.31;37.65;95812.38;5112658;28;20514;-55
2022/05/06 10:57:59;;;;;;;4.97;0.90;;;;;;;25.67;38.19;95809.47;5112378;28;20518;-55
2022/05/06 11:00:29;;;;;;;4.73;0.90;;;;;;;26.26;38.64;95809.22;5112383;28;20932;-55
2022/05/06 11:03:02;;;;;;;1.43;1.33;;;;;;;26.39;37.66;95790.84;5112308;28;20921;-54
2022/05/06 11:05:31;;;;;;;0.40;0.40;;;;;;;25.76;38.62;95796.47;5112328;28;20478;-54
2022/05/06 11:08:02;;;;;;;0.97;0.90;;;;;;;25.62;38.53;95796.16;5112513;28;20800;-55
2022/05/06 11:10:34;;;;;;;6.00;0.73;;;;;;;25.39;38.13;95772.69;5112063;28;20467;-54
2022/05/06 11:13:26;;;;;;;0.83;0.83;;;;;;;26.06;37.54;95796.72;5111645;28;20833;-54
2022/05/06 11:15:56;;;;;;;0.50;0.50;;;;;;;24.62;39.90;95793.97;5111951;28;20527;-54
2022/05/06 11:18:26;;;;;;;0.60;0.50;;;;;;;24.94;38.84;95781.28;5112121;28;20523;-54
2022/05/06 11:20:55;;;;;;;3.53;0.43;;;;;;;25.07;38.94;95783.56;5112371;28;20580;-55
2022/05/06 11:23:30;;;;;;;1.20;1.20;;;;;;;24.73;40.64;95781.50;5112600;28;20459;-55
2022/05/06 11:26:00;;;;;;;0.60;0.50;;;;;;;23.95;43.06;95775.81;5112295;28;20427;-55
2022/05/06 11:28:32;;;;;;;0.60;0.60;;;;;;;24.08;42.73;95776.59;5111992;28;20424;-55
2022/05/06 11:31:01;;;;;;;0.50;0.40;;;;;;;24.06;43.03;95770.72;5112097;27;20843;-55
2022/05/06 11:33:31;;;;;;;1.57;1.47;;;;;;;23.63;43.36;95734.25;5116220;28;20488;-55
2022/05/06 11:36:05;;;;;;;4.57;0.67;;;;;;;24.33;42.17;95778.09;5116307;28;20514;-55
2022/05/06 11:38:46;;;;;;;0.60;0.60;;;;;;;24.20;42.85;95777.34;5116247;28;20951;-55
2022/05/06 11:41:18;;;;;;;0.67;0.67;;;;;;;24.43;42.50;95774.88;5116515;28;20486;-56
2022/05/06 11:43:47;;;;;;;0.50;0.50;;;;;;;24.32;43.65;95771.09;5115999;28;20812;-56
2022/05/06 11:49:03;;;;;;;0.50;0.30;;;;;;;25.91;39.20;95759.53;5116077;28;20480;-57
2022/05/06 11:51:36;;;;;;;1.03;1.03;;;;;;;25.27;38.89;95763.50;5115890;28;21006;-57
2022/05/06 11:54:06;;;;;;;0.40;0.30;;;;;;;25.50;38.22;95717.53;5115917;28;20484;-57
2022/05/06 11:56:40;;;;;;;0.40;0.30;;;;;;;25.94;37.20;95758.84;5115621;28;20478;-57
2022/05/06 11:59:10;;;;;;;0.50;0.47;;;;;;;25.97;37.48;95751.91;5115720;28;20514;-57
2022/05/06 12:01:38;;;;;;;0.30;0.20;;;;;;;25.97;37.11;95744.53;5115810;28;20478;-57
2022/05/06 12:04:09;;;;;;;0.40;0.33;;;;;;;25.79;36.76;95736.03;5115964;28;20511;-58
2022/05/06 12:06:41;;;;;;;0.87;0.87;;;;;;;25.99;38.12;95742.25;5115494;28;20929;-58
2022/05/06 12:09:12;;;;;;;0.50;0.40;;;;;;;24.80;37.95;95713.91;5115130;28;20484;-58
2022/05/06 12:11:43;;;;;;;0.50;0.50;;;;;;;23.93;39.60;95675.97;5115147;28;20521;-59
2022/05/06 12:14:15;;;;;;;0.83;0.83;;;;;;;24.00;39.16;95732.25;5114567;28;20465;-58
2022/05/06 12:16:56;;;;;;;0.40;0.30;;;;;;;24.27;39.69;95736.13;5115779;28;20419;-58
2022/05/06 12:19:35;;;;;;;0.40;0.30;;;;;;;24.52;39.74;95715.88;5115196;28;20921;-58
2022/05/06 12:22:08;;;;;;;0.97;0.97;;;;;;;24.86;38.49;95726.09;5115569;28;20448;-58
2022/05/06 12:24:45;;;;;;;0.50;0.33;;;;;;;24.63;38.63;95733.22;5115473;28;20502;-58
2022/05/06 12:27:24;;;;;;;0.60;0.60;;;;;;;24.49;37.53;95703.03;5115250;28;20518;-57